Time;durP1;ratioP1;P1;durP2;ratioP2;P2;SDS_P1;SDS_P2;PMS_P1;PMS_P2;Temp;Humidity;BMP_temperature;BMP_pressure;BME280_temperature;BME280_humidity;BME280_pressure;Samples;Min_cycle;Max_cycle;Signal;HPM_P1;HPM_P2
2023/08/20 00:02:23;;;;;;;111.73;9.33;;;;;;;26.26;61.69;99703.22;7308497;19;129993;-39
2023/08/20 00:04:48;;;;;;;31.70;4.50;;;;;;;26.25;62.44;99704.22;7306866;19;129695;-42
2023/08/20 00:07:15;;;;;;;55.23;5.73;;;;;;;26.27;62.31;99704.88;7308671;19;128837;-39
2023/08/20 00:09:41;;;;;;;65.68;5.93;;;;;;;26.25;62.32;99698.94;7308284;19;128924;-42
2023/08/20 00:12:07;;;;;;;61.90;6.07;;;;;;;26.25;61.55;99695.47;7307920;19;130944;-43
2023/08/20 00:15:07;;;;;;;54.13;5.83;;;;;;;26.26;63.85;99705.84;7303839;19;129379;-39
2023/08/20 00:17:36;;;;;;;58.55;5.85;;;;;;;26.27;61.76;99698.78;7307952;19;128962;-42
2023/08/20 00:20:09;;;;;;;41.42;5.60;;;;;;;26.24;62.09;99692.03;7309083;19;129552;-38
2023/08/20 00:22:35;;;;;;;49.40;6.10;;;;;;;26.28;61.89;99703.06;7304663;19;129500;-41
2023/08/20 00:25:00;;;;;;;56.60;5.73;;;;;;;26.27;61.54;99696.97;7306624;19;129471;-39
2023/08/20 00:27:26;;;;;;;72.03;6.80;;;;;;;26.27;61.82;99702.25;7308691;19;128850;-44
2023/08/20 00:29:51;;;;;;;39.83;5.23;;;;;;;26.29;61.47;99697.63;7309548;19;129223;-38
2023/08/20 00:32:16;;;;;;;72.17;7.13;;;;;;;26.29;61.76;99704.72;7306937;19;129266;-41
2023/08/20 00:34:42;;;;;;;49.80;5.77;;;;;;;26.27;61.38;99702.25;7305811;19;129816;-40
2023/08/20 00:37:07;;;;;;;52.73;5.67;;;;;;;26.26;61.85;99703.22;7309481;19;129279;-40
2023/08/20 00:39:33;;;;;;;44.57;5.37;;;;;;;26.27;62.11;99704.88;7307861;19;129436;-40
2023/08/20 00:41:58;;;;;;;54.57;5.70;;;;;;;26.27;61.40;99702.25;7307202;19;129627;-43
2023/08/20 00:44:23;;;;;;;66.87;6.23;;;;;;;26.28;61.68;99709.16;7305977;19;129532;-41
2023/08/20 00:46:50;;;;;;;45.40;5.03;;;;;;;26.27;61.82;99706.69;7307879;19;129516;-41
2023/08/20 00:49:16;;;;;;;62.72;6.32;;;;;;;26.27;61.71;99707.53;7307964;19;129185;-43
2023/08/20 00:51:42;;;;;;;42.40;4.83;;;;;;;26.26;61.87;99700.59;7307766;19;129260;-38
2023/08/20 00:54:07;;;;;;;84.73;7.30;;;;;;;26.27;62.00;99704.06;7301521;19;129622;-43
2023/08/20 00:56:33;;;;;;;52.20;5.63;;;;;;;26.26;61.71;99705.84;7307967;19;129437;-44
2023/08/20 00:58:58;;;;;;;42.23;5.37;;;;;;;26.16;62.31;99689.44;7308331;19;129655;-41
2023/08/20 01:01:24;;;;;;;48.87;5.70;;;;;;;26.27;61.95;99710.16;7307139;19;129615;-37
2023/08/20 01:03:52;;;;;;;56.67;5.60;;;;;;;26.27;62.19;99707.53;7305602;19;131326;-37
2023/08/20 01:06:22;;;;;;;52.95;5.95;;;;;;;26.27;62.09;99707.53;7307025;19;129242;-35
2023/08/20 01:08:57;;;;;;;57.03;5.88;;;;;;;26.29;62.55;99707.34;7306515;19;128831;-39
2023/08/20 01:11:33;;;;;;;56.17;5.75;;;;;;;26.18;62.53;99687.41;7306754;19;130584;-36
2023/08/20 01:13:59;;;;;;;43.35;5.15;;;;;;;26.29;61.63;99710.81;7304426;19;130053;-43
2023/08/20 01:16:24;;;;;;;71.90;6.63;;;;;;;26.27;62.31;99712.78;7306249;19;129292;-39
2023/08/20 01:18:50;;;;;;;42.13;4.87;;;;;;;26.21;61.45;99710.84;7307545;19;129826;-42
2023/08/20 01:21:39;;;;;;;49.35;5.75;;;;;;;26.30;63.63;99727.44;7306642;19;130501;-42
2023/08/20 01:24:13;;;;;;;41.30;4.88;;;;;;;26.27;63.22;99735.69;7304759;19;129424;-39
2023/08/20 01:26:57;;;;;;;47.50;5.22;;;;;;;26.28;62.29;99735.50;7305215;19;129431;-39
2023/08/20 01:29:22;;;;;;;49.10;5.60;;;;;;;26.27;61.86;99739.16;7307105;19;129864;-35
2023/08/20 01:31:48;;;;;;;57.87;5.77;;;;;;;26.28;61.70;99746.06;7305860;19;129753;-43
2023/08/20 01:34:14;;;;;;;58.53;6.07;;;;;;;26.27;62.08;99744.41;7307426;19;129990;-43
2023/08/20 01:36:39;;;;;;;63.53;6.13;;;;;;;26.18;61.99;99734.84;7313085;19;129561;-38
2023/08/20 01:39:05;;;;;;;49.57;5.60;;;;;;;26.27;62.20;99748.88;7313604;19;129398;-40
2023/08/20 01:41:30;;;;;;;65.33;6.40;;;;;;;26.27;62.30;99744.41;7313296;19;129241;-43
2023/08/20 01:43:56;;;;;;;44.50;5.20;;;;;;;26.28;62.51;99753.16;7311087;19;130365;-38
2023/08/20 01:46:21;;;;;;;58.03;6.00;;;;;;;26.27;61.98;99749.69;7313460;19;130229;-36
2023/08/20 01:48:47;;;;;;;70.77;6.93;;;;;;;26.28;62.50;99751.31;7312015;19;129824;-40
2023/08/20 01:51:12;;;;;;;43.90;5.50;;;;;;;26.27;61.83;99754.97;7312320;19;130017;-39
2023/08/20 01:53:37;;;;;;;58.30;5.63;;;;;;;26.29;61.90;99758.25;7309493;19;129191;-38
2023/08/20 01:56:03;;;;;;;45.40;5.07;;;;;;;26.29;61.98;99763.53;7312107;19;129544;-40
2023/08/20 01:58:28;;;;;;;62.93;6.57;;;;;;;26.27;61.84;99760.25;7311854;19;129143;-43
2023/08/20 02:00:53;;;;;;;45.57;5.50;;;;;;;26.30;62.28;99765.16;7312318;19;129458;-37
2023/08/20 02:03:19;;;;;;;68.73;6.63;;;;;;;26.29;61.96;99763.53;7310777;19;130203;-38
2023/08/20 02:05:44;;;;;;;56.83;6.03;;;;;;;26.28;62.33;99766.34;7309077;19;129464;-36
2023/08/20 02:08:09;;;;;;;62.00;6.30;;;;;;;26.28;61.77;99761.88;7312058;19;129443;-42
2023/08/20 02:10:35;;;;;;;51.27;5.33;;;;;;;26.19;61.98;99757.59;7311489;19;129086;-45
2023/08/20 02:13:01;;;;;;;37.63;4.70;;;;;;;26.27;61.52;99768.16;7309933;19;130690;-45
2023/08/20 02:15:26;;;;;;;57.53;5.73;;;;;;;26.28;62.22;99776.88;7309658;19;129281;-38
2023/08/20 02:17:51;;;;;;;66.03;6.40;;;;;;;26.29;62.28;99774.09;7311019;19;129129;-37
2023/08/20 02:20:17;;;;;;;79.43;7.23;;;;;;;26.22;61.50;99759.06;7309240;19;130800;-38
2023/08/20 02:22:42;;;;;;;60.87;5.77;;;;;;;26.30;61.84;99777.53;7309654;19;129458;-37
2023/08/20 02:25:08;;;;;;;54.07;5.53;;;;;;;26.28;62.01;99776.88;7309138;19;129597;-39
2023/08/20 02:27:33;;;;;;;62.93;5.97;;;;;;;26.28;61.62;99780.31;7311349;19;129248;-39
2023/08/20 02:29:59;;;;;;;41.83;5.17;;;;;;;26.21;62.05;99766.19;7310757;19;129604;-41
2023/08/20 02:32:24;;;;;;;73.93;7.73;;;;;;;26.30;61.57;99788.91;7309581;19;129841;-35
2023/08/20 02:34:53;;;;;;;61.53;6.13;;;;;;;26.24;62.70;99776.38;7309349;19;129538;-42
2023/08/20 02:37:18;;;;;;;65.45;6.50;;;;;;;26.28;62.06;99788.22;7310639;19;129271;-38
2023/08/20 02:39:44;;;;;;;55.67;5.50;;;;;;;26.22;61.53;99773.09;7310272;19;129580;-36
2023/08/20 02:42:09;;;;;;;33.60;5.00;;;;;;;26.28;61.79;99780.31;7309630;19;130029;-41
2023/08/20 02:44:34;;;;;;;62.93;5.60;;;;;;;26.29;61.85;99784.63;7307644;19;129132;-40
2023/08/20 02:47:00;;;;;;;66.27;6.33;;;;;;;26.30;62.12;99788.91;7309224;19;129621;-36
2023/08/20 02:49:25;;;;;;;58.43;5.90;;;;;;;26.19;62.17;99762.06;7309809;19;129526;-41
2023/08/20 02:51:50;;;;;;;36.67;4.70;;;;;;;26.28;61.94;99772.41;7309235;19;129644;-38
2023/08/20 02:54:16;;;;;;;67.07;6.43;;;;;;;26.28;62.08;99782.97;7306586;19;128884;-36
2023/08/20 02:56:41;;;;;;;55.80;5.70;;;;;;;26.30;61.69;99780.16;7310807;19;128940;-38
2023/08/20 02:59:07;;;;;;;55.67;6.00;;;;;;;26.29;61.52;99776.72;7309948;19;130018;-39
2023/08/20 03:01:32;;;;;;;54.07;5.47;;;;;;;26.30;62.43;99778.34;7309584;19;129165;-38
2023/08/20 03:03:57;;;;;;;66.13;6.37;;;;;;;26.30;61.65;99774.88;7308458;19;129248;-42
2023/08/20 03:06:23;;;;;;;42.47;4.90;;;;;;;26.30;61.87;99775.72;7309834;19;129015;-42
2023/08/20 03:08:48;;;;;;;45.80;4.90;;;;;;;26.29;62.09;99767.97;7309616;19;129150;-39
2023/08/20 03:11:13;;;;;;;48.13;5.00;;;;;;;26.32;61.89;99778.19;7310210;19;130580;-36
2023/08/20 03:13:39;;;;;;;66.57;6.13;;;;;;;26.30;61.82;99781.00;7307449;19;128897;-41
2023/08/20 03:16:04;;;;;;;62.00;6.37;;;;;;;26.30;62.37;99780.16;7310428;19;129460;-38
2023/08/20 03:18:30;;;;;;;44.77;5.20;;;;;;;26.29;62.36;99778.53;7308904;19;129650;-39
2023/08/20 03:20:56;;;;;;;53.17;5.37;;;;;;;26.29;62.07;99779.34;7309293;19;129121;-38
2023/08/20 03:23:22;;;;;;;62.27;6.17;;;;;;;26.29;62.20;99787.25;7308780;19;129562;-40
2023/08/20 03:25:47;;;;;;;48.05;5.28;;;;;;;26.32;62.11;99794.84;7307306;19;129080;-38
2023/08/20 03:28:12;;;;;;;44.73;4.90;;;;;;;26.30;61.91;99786.25;7308967;19;129265;-38
2023/08/20 03:30:38;;;;;;;61.60;6.03;;;;;;;26.30;61.48;99790.69;7308468;19;129713;-41
2023/08/20 03:33:03;;;;;;;52.47;5.37;;;;;;;26.30;62.30;99786.25;7307570;19;129027;-36
2023/08/20 03:35:29;;;;;;;58.63;5.97;;;;;;;26.32;61.46;99789.56;7306935;19;129199;-40
2023/08/20 03:37:54;;;;;;;41.43;4.87;;;;;;;26.32;62.02;99792.19;7308717;19;129314;-38
2023/08/20 03:40:20;;;;;;;74.43;6.27;;;;;;;26.30;61.43;99794.16;7308902;19;131292;-40
2023/08/20 03:42:45;;;;;;;49.23;5.37;;;;;;;26.31;61.61;99792.38;7308217;19;129222;-40
2023/08/20 03:45:10;;;;;;;39.07;4.67;;;;;;;26.29;61.53;99800.44;7307149;19;129114;-37
2023/08/20 03:47:36;;;;;;;68.50;6.83;;;;;;;26.31;61.85;99798.44;7307312;19;129594;-40
2023/08/20 03:50:02;;;;;;;63.40;6.13;;;;;;;26.30;61.65;99796.81;7308970;19;129624;-41
2023/08/20 03:52:27;;;;;;;76.30;6.80;;;;;;;26.29;62.06;99803.09;7308121;19;129139;-41
2023/08/20 03:54:53;;;;;;;51.47;5.63;;;;;;;26.25;62.06;99793.84;7305483;19;129697;-40
2023/08/20 03:57:18;;;;;;;53.77;5.20;;;;;;;26.29;61.74;99797.81;7308449;19;129332;-39
2023/08/20 03:59:45;;;;;;;67.67;5.73;;;;;;;26.22;62.51;99796.81;7307978;19;129640;-37
2023/08/20 04:02:10;;;;;;;66.72;6.60;;;;;;;26.32;62.29;99829.09;7307977;19;129504;-39
2023/08/20 04:04:36;;;;;;;49.60;5.47;;;;;;;26.29;62.30;99829.44;7306895;19;128767;-41
2023/08/20 04:07:02;;;;;;;46.30;5.50;;;;;;;26.31;61.93;99830.06;7308233;19;129005;-36
2023/08/20 04:09:28;;;;;;;68.17;6.27;;;;;;;26.29;61.78;99826.81;7308214;19;129228;-35
2023/08/20 04:11:53;;;;;;;35.73;4.60;;;;;;;26.32;62.34;99826.47;7308693;19;128938;-38
2023/08/20 04:14:18;;;;;;;56.63;6.10;;;;;;;26.31;61.66;99824.81;7305642;19;129061;-36
2023/08/20 04:16:44;;;;;;;77.27;7.07;;;;;;;26.34;61.96;99823.66;7307525;19;130157;-34
2023/08/20 04:19:09;;;;;;;39.30;5.10;;;;;;;26.30;61.83;99833.72;7308634;19;131112;-35
2023/08/20 04:21:34;;;;;;;56.53;5.60;;;;;;;26.31;61.91;99830.06;7308349;19;128979;-34
2023/08/20 04:24:00;;;;;;;44.07;5.40;;;;;;;26.32;62.06;99837.00;7307373;19;129608;-35
2023/08/20 04:26:25;;;;;;;76.83;6.97;;;;;;;26.31;62.05;99845.09;7307724;19;131294;-37
2023/08/20 04:28:50;;;;;;;50.93;5.47;;;;;;;26.30;61.79;99854.81;7308523;19;130314;-41
2023/08/20 04:31:16;;;;;;;60.93;6.20;;;;;;;26.30;61.96;99853.97;7308315;19;129140;-39
2023/08/20 04:33:41;;;;;;;64.00;6.17;;;;;;;26.29;62.18;99849.69;7305666;19;129213;-37
2023/08/20 04:36:07;;;;;;;53.30;5.50;;;;;;;26.30;62.14;99851.34;7308156;19;129067;-39
2023/08/20 04:38:32;;;;;;;46.47;5.17;;;;;;;26.30;62.11;99865.34;7307838;19;131051;-41
2023/08/20 04:40:57;;;;;;;42.23;5.07;;;;;;;26.30;62.54;99853.97;7308059;19;129487;-36
2023/08/20 04:43:23;;;;;;;45.90;5.30;;;;;;;26.31;62.00;99861.72;7307158;19;129720;-35
2023/08/20 04:45:49;;;;;;;71.03;6.73;;;;;;;26.22;61.90;99852.16;7304341;19;130261;-40
2023/08/20 04:48:15;;;;;;;41.72;4.93;;;;;;;26.33;61.42;99874.75;7306635;19;129961;-42
2023/08/20 04:50:40;;;;;;;62.47;6.03;;;;;;;26.25;62.32;99862.38;7307274;19;129964;-43
2023/08/20 04:53:05;;;;;;;37.00;4.73;;;;;;;26.29;62.20;99868.97;7305858;19;130049;-39
2023/08/20 04:55:31;;;;;;;70.07;6.33;;;;;;;26.30;61.95;99867.97;7304320;19;129776;-37
2023/08/20 04:57:56;;;;;;;53.20;5.50;;;;;;;26.30;62.04;99865.34;7307141;19;129385;-40
2023/08/20 05:00:22;;;;;;;55.57;5.97;;;;;;;26.31;62.23;99872.25;7306380;19;129124;-38
2023/08/20 05:02:47;;;;;;;62.03;5.93;;;;;;;26.31;62.00;99872.25;7304953;19;129303;-41
2023/08/20 05:05:13;;;;;;;54.10;5.60;;;;;;;26.31;61.79;99877.53;7305293;19;129325;-41
2023/08/20 05:07:38;;;;;;;56.20;5.70;;;;;;;26.31;62.36;99874.88;7305481;19;129155;-43
2023/08/20 05:10:04;;;;;;;46.13;5.30;;;;;;;26.31;61.76;99876.72;7306520;19;129313;-39
2023/08/20 05:12:30;;;;;;;99.90;8.53;;;;;;;26.31;61.66;99880.16;7304357;19;129792;-42
2023/08/20 05:14:55;;;;;;;76.27;6.77;;;;;;;26.32;61.54;99884.47;7300337;19;130807;-37
2023/08/20 05:17:20;;;;;;;52.17;5.63;;;;;;;26.31;61.71;99882.00;7307255;19;130632;-39
2023/08/20 05:19:46;;;;;;;52.20;5.57;;;;;;;26.30;62.08;99883.81;7306830;19;129396;-38
2023/08/20 05:22:11;;;;;;;66.27;6.13;;;;;;;26.30;62.43;99891.72;7306989;19;129261;-41
2023/08/20 05:24:37;;;;;;;35.00;4.90;;;;;;;26.29;62.46;99890.06;7304804;19;129155;-42
2023/08/20 05:27:14;;;;;;;51.73;5.57;;;;;;;26.30;64.11;99891.72;7306752;19;129230;-40
2023/08/20 05:29:40;;;;;;;59.35;6.15;;;;;;;26.33;62.04;99896.66;7305483;19;129339;-40
2023/08/20 05:32:07;;;;;;;66.80;6.57;;;;;;;26.24;61.81;99879.19;7304197;19;129004;-42
2023/08/20 05:34:32;;;;;;;53.65;5.45;;;;;;;26.32;62.02;99908.19;7302314;19;130881;-41
2023/08/20 05:36:58;;;;;;;46.23;5.20;;;;;;;26.33;61.85;99912.47;7305901;19;129397;-40
2023/08/20 05:39:25;;;;;;;42.00;4.87;;;;;;;26.31;62.12;99918.91;7306060;19;129276;-40
2023/08/20 05:41:51;;;;;;;52.47;5.38;;;;;;;26.34;62.30;99913.31;7306285;19;129906;-38
2023/08/20 05:44:16;;;;;;;63.77;6.30;;;;;;;26.31;62.62;99913.63;7304413;19;129281;-39
2023/08/20 05:46:43;;;;;;;57.80;5.73;;;;;;;26.33;61.65;99923.00;7305670;19;130915;-40
2023/08/20 05:49:08;;;;;;;;;;;;;;;26.31;65.11;99919.72;7306238;19;129483;-37
2023/08/20 05:51:33;;;;;;;73.87;6.53;;;;;;;26.33;61.58;99922.22;7305401;19;129155;-42
2023/08/20 05:53:59;;;;;;;42.17;4.83;;;;;;;26.32;61.88;99925.81;7303966;19;129663;-35
2023/08/20 05:56:24;;;;;;;52.77;5.30;;;;;;;26.30;61.55;99923.34;7305178;19;129055;-34
2023/08/20 05:58:49;;;;;;;65.90;6.47;;;;;;;26.32;62.05;99925.81;7304660;19;129644;-40
2023/08/20 06:01:15;;;;;;;58.33;5.70;;;;;;;26.31;61.91;99930.25;7305500;19;129294;-39
2023/08/20 06:03:40;;;;;;;72.70;6.60;;;;;;;26.26;62.04;99922.00;7304366;19;130349;-38
2023/08/20 06:06:05;;;;;;;53.60;5.40;;;;;;;26.31;62.45;99935.53;7305458;19;130474;-38
2023/08/20 06:08:31;;;;;;;58.93;5.80;;;;;;;26.30;61.97;99930.41;7305146;19;129305;-37
2023/08/20 06:10:56;;;;;;;61.27;6.40;;;;;;;26.32;61.89;99929.28;7305339;19;129087;-35
2023/08/20 06:13:21;;;;;;;57.67;5.73;;;;;;;26.31;61.43;99930.25;7302904;19;129273;-41
2023/08/20 06:15:47;;;;;;;61.13;5.83;;;;;;;26.31;61.81;99946.06;7302048;19;129412;-37
2023/08/20 06:18:12;;;;;;;48.53;5.33;;;;;;;26.31;61.93;99935.53;7303334;19;129222;-38
2023/08/20 06:20:38;;;;;;;61.00;5.70;;;;;;;26.31;61.90;99938.16;7306068;19;129426;-36
2023/08/20 06:23:03;;;;;;;52.37;5.77;;;;;;;26.32;62.01;99947.75;7310819;19;129436;-37
2023/08/20 06:25:29;;;;;;;55.07;5.77;;;;;;;26.32;61.88;99945.09;7307156;19;130036;-38
2023/08/20 06:27:54;;;;;;;63.67;6.03;;;;;;;26.31;61.69;99946.06;7311434;19;129447;-38
2023/08/20 06:30:19;;;;;;;59.07;5.47;;;;;;;26.32;62.35;99945.09;7312572;19;130709;-37
2023/08/20 06:32:45;;;;;;;47.20;5.00;;;;;;;26.31;62.42;99948.72;7311617;19;129477;-36
2023/08/20 06:35:11;;;;;;;60.77;5.90;;;;;;;26.22;62.17;99931.25;7308675;19;129175;-38
2023/08/20 06:37:36;;;;;;;72.50;6.70;;;;;;;26.24;61.94;99924.00;7310883;19;129020;-38
2023/08/20 06:40:01;;;;;;;44.50;5.10;;;;;;;26.32;61.93;99934.56;7312699;19;129608;-38
2023/08/20 06:42:27;;;;;;;77.80;6.80;;;;;;;26.34;62.28;99940.50;7310018;19;129637;-38
2023/08/20 06:44:52;;;;;;;35.77;4.57;;;;;;;26.33;61.86;99940.66;7308786;19;129464;-39
2023/08/20 06:47:17;;;;;;;59.00;5.63;;;;;;;26.30;61.85;99931.25;7310467;19;129139;-39
2023/08/20 06:49:43;;;;;;;49.50;5.17;;;;;;;26.24;61.65;99934.53;7311468;19;129989;-37
2023/08/20 06:52:09;;;;;;;48.07;5.00;;;;;;;26.30;62.33;99949.72;7310629;19;129716;-39
2023/08/20 06:54:34;;;;;;;57.95;5.63;;;;;;;26.31;62.32;99935.53;7307620;19;129273;-40
2023/08/20 06:57:00;;;;;;;60.53;5.73;;;;;;;26.31;62.16;99951.34;7310989;19;130037;-37
2023/08/20 06:59:25;;;;;;;54.63;5.33;;;;;;;26.33;62.27;99952.00;7311673;19;129394;-39
2023/08/20 07:01:50;;;;;;;50.20;5.13;;;;;;;26.33;62.26;99952.00;7310667;19;129514;-39
2023/08/20 07:04:16;;;;;;;66.07;5.90;;;;;;;26.32;62.22;99958.28;7308479;19;129408;-40
2023/08/20 07:06:41;;;;;;;106.00;8.10;;;;;;;26.33;61.82;99961.75;7307157;19;130149;-40
2023/08/20 07:09:07;;;;;;;56.57;5.33;;;;;;;26.31;61.98;99967.16;7311610;19;129560;-41
2023/08/20 07:11:32;;;;;;;73.87;6.23;;;;;;;26.32;62.04;99973.25;7309698;19;130364;-39
2023/08/20 07:13:57;;;;;;;61.30;5.93;;;;;;;26.25;61.80;99965.19;7307040;19;132514;-40
2023/08/20 07:16:23;;;;;;;66.73;6.40;;;;;;;26.30;62.52;99986.59;7309083;19;130230;-40
2023/08/20 07:18:48;;;;;;;44.57;5.30;;;;;;;26.30;61.90;99983.97;7309841;19;129614;-39
2023/08/20 07:21:13;;;;;;;38.40;4.43;;;;;;;26.30;62.14;99981.34;7309558;19;129900;-41
2023/08/20 07:23:39;;;;;;;80.50;6.90;;;;;;;26.32;61.78;99981.19;7308430;19;129559;-38
2023/08/20 07:26:09;;;;;;;53.10;5.77;;;;;;;26.32;63.10;99983.81;7310460;19;129925;-40
2023/08/20 07:31:20;;;;;;;51.70;5.35;;;;;;;26.31;62.07;99993.53;7309098;19;130958;-37
2023/08/20 07:33:47;;;;;;;49.70;5.45;;;;;;;26.33;62.21;99991.56;7307507;19;130183;-40
2023/08/20 07:36:13;;;;;;;65.35;6.10;;;;;;;26.32;62.13;99979.38;7309125;19;129198;-40
2023/08/20 07:38:41;;;;;;;50.90;5.43;;;;;;;26.33;62.21;99986.28;7309570;19;128926;-41
2023/08/20 07:41:07;;;;;;;49.50;5.00;;;;;;;26.31;61.64;99988.25;7308836;19;130128;-39
2023/08/20 07:43:32;;;;;;;52.42;5.22;;;;;;;26.29;62.15;99984.13;7307960;19;130425;-39
2023/08/20 07:45:57;;;;;;;62.33;5.73;;;;;;;26.31;62.11;99993.53;7308755;19;129189;-41
2023/08/20 07:48:23;;;;;;;62.43;5.63;;;;;;;26.32;61.93;99989.91;7309115;19;128772;-38
2023/08/20 07:50:48;;;;;;;55.90;5.40;;;;;;;26.34;61.96;99987.13;7308489;19;129526;-40
2023/08/20 07:53:13;;;;;;;48.67;5.37;;;;;;;26.33;61.56;99986.28;7307434;19;130374;-41
2023/08/20 07:55:39;;;;;;;63.77;5.57;;;;;;;26.32;61.99;99984.66;7306194;19;129001;-39
2023/08/20 07:58:04;;;;;;;49.30;5.27;;;;;;;26.31;62.01;99982.97;7309532;19;130650;-40
2023/08/20 08:00:29;;;;;;;47.43;4.97;;;;;;;26.32;62.13;99984.66;7308443;19;130254;-39
2023/08/20 08:02:55;;;;;;;19.50;3.63;;;;;;;26.27;62.12;99979.03;7307534;19;129379;-37
2023/08/20 08:05:20;;;;;;;63.33;5.57;;;;;;;26.32;62.07;99979.38;7306584;19;129359;-41
2023/08/20 08:07:45;;;;;;;59.17;5.60;;;;;;;26.32;62.01;99987.28;7308200;19;129225;-41
2023/08/20 08:10:11;;;;;;;54.73;5.37;;;;;;;26.32;61.73;99994.34;7307629;19;129260;-37
2023/08/20 08:12:36;;;;;;;55.00;5.13;;;;;;;26.33;61.70;99996.84;7306754;19;130886;-40
2023/08/20 08:15:02;;;;;;;54.10;5.30;;;;;;;26.32;62.03;99995.19;7305956;19;128831;-38
2023/08/20 08:17:27;;;;;;;52.13;5.20;;;;;;;26.23;62.15;99993.50;7308095;19;129542;-39
2023/08/20 08:19:54;;;;;;;40.50;4.43;;;;;;;26.32;62.25;100004.91;7307281;19;129579;-38
2023/08/20 08:22:20;;;;;;;104.35;8.23;;;;;;;26.35;61.91;100009.84;7307374;19;130329;-38
2023/08/20 08:24:45;;;;;;;58.67;5.77;;;;;;;26.33;61.56;100012.66;7306877;19;130215;-41
2023/08/20 08:27:10;;;;;;;54.83;5.53;;;;;;;26.33;61.94;100015.28;7308416;19;129327;-42
2023/08/20 08:29:36;;;;;;;44.20;4.70;;;;;;;26.32;62.27;100011.00;7307522;19;129646;-36
2023/08/20 08:32:01;;;;;;;66.03;5.77;;;;;;;26.33;62.25;100019.75;7307270;19;129271;-41
2023/08/20 08:34:26;;;;;;;49.43;5.13;;;;;;;26.32;62.02;100018.91;7301623;19;129345;-41
2023/08/20 08:36:52;;;;;;;40.53;4.57;;;;;;;26.33;62.19;100025.81;7306911;19;129481;-36
2023/08/20 08:39:17;;;;;;;57.33;5.87;;;;;;;26.31;61.98;100027.78;7306249;19;129113;-37
2023/08/20 08:41:43;;;;;;;68.60;5.93;;;;;;;26.31;61.99;100025.16;7307254;19;129569;-37
2023/08/20 08:44:10;;;;;;;46.10;4.93;;;;;;;26.31;62.06;100017.25;7304075;19;129071;-40
2023/08/20 08:46:38;;;;;;;51.47;5.45;;;;;;;26.32;61.80;100021.56;7306606;19;129792;-37
2023/08/20 08:49:04;;;;;;;69.05;5.78;;;;;;;26.33;61.99;100025.81;7304340;19;129896;-40
2023/08/20 08:51:30;;;;;;;78.07;6.63;;;;;;;26.33;62.39;100025.03;7306803;19;130268;-40
2023/08/20 08:53:56;;;;;;;62.83;5.97;;;;;;;26.34;62.05;100031.94;7306268;19;129128;-39
2023/08/20 08:56:21;;;;;;;55.37;5.17;;;;;;;26.35;61.44;100046.75;7307741;19;129299;-38
2023/08/20 08:58:47;;;;;;;46.37;4.90;;;;;;;26.23;61.88;100022.50;7307349;19;129517;-44
2023/08/20 09:01:13;;;;;;;55.73;5.07;;;;;;;26.33;62.02;100044.28;7307988;19;129812;-42
2023/08/20 09:03:39;;;;;;;49.73;5.37;;;;;;;26.33;62.28;100048.75;7306176;19;129588;-41
2023/08/20 09:06:09;;;;;;;48.37;4.97;;;;;;;26.33;63.21;100041.66;7307012;19;129070;-39
2023/08/20 09:08:34;;;;;;;54.03;5.07;;;;;;;26.35;62.38;100052.03;7306252;19;130833;-39
2023/08/20 09:11:01;;;;;;;56.13;5.27;;;;;;;26.32;61.56;100045.28;7306057;19;130334;-37
2023/08/20 09:13:32;;;;;;;55.15;5.05;;;;;;;26.34;63.29;100053.03;7305387;19;129615;-38
2023/08/20 09:15:58;;;;;;;50.55;5.20;;;;;;;26.33;61.95;100046.91;7305996;19;129597;-37
2023/08/20 09:18:23;;;;;;;53.10;4.97;;;;;;;26.33;61.91;100054.84;7305775;19;129187;-40
2023/08/20 09:20:49;;;;;;;52.80;5.00;;;;;;;26.32;61.70;100047.09;7305841;19;129653;-42
2023/08/20 09:23:15;;;;;;;44.00;4.57;;;;;;;26.32;61.98;100047.09;7305505;19;129383;-39
2023/08/20 09:25:41;;;;;;;60.67;5.90;;;;;;;26.32;62.45;100055.81;7303222;19;129330;-37
2023/08/20 09:28:07;;;;;;;56.72;5.20;;;;;;;26.23;62.08;100043.59;7305689;19;129665;-37
2023/08/20 09:30:32;;;;;;;58.60;5.63;;;;;;;26.33;62.18;100060.09;7305660;19;129495;-42
2023/08/20 09:33:06;;;;;;;48.30;4.83;;;;;;;26.35;63.41;100073.97;7305422;19;129480;-41
2023/08/20 09:35:31;;;;;;;65.13;5.90;;;;;;;26.34;61.84;100071.50;7303823;19;129942;-36
2023/08/20 09:38:00;;;;;;;45.63;4.87;;;;;;;26.26;62.72;100058.28;7305671;19;129497;-42
2023/08/20 09:40:27;;;;;;;67.15;5.88;;;;;;;26.32;62.76;100058.47;7304773;19;129312;-41
2023/08/20 09:42:54;;;;;;;41.33;4.65;;;;;;;26.26;62.15;100053.81;7305459;19;129391;-40
2023/08/20 09:45:20;;;;;;;55.38;5.32;;;;;;;26.32;62.21;100062.91;7303028;19;128934;-40
2023/08/20 09:47:48;;;;;;;41.22;4.30;;;;;;;26.34;62.42;100060.94;7304742;19;130153;-41
2023/08/20 09:50:18;;;;;;;68.15;6.03;;;;;;;26.34;62.55;100064.41;7304868;19;129680;-39
2023/08/20 09:53:05;;;;;;;52.25;5.03;;;;;;;26.35;63.88;100063.41;7304484;19;129283;-40
2023/08/20 09:55:35;;;;;;;54.15;5.28;;;;;;;26.34;63.07;100066.22;7307595;19;129835;-42
2023/08/20 09:58:02;;;;;;;41.88;4.38;;;;;;;26.33;62.31;100061.94;7311826;19;129236;-42
2023/08/20 10:00:28;;;;;;;35.60;4.40;;;;;;;26.34;61.93;100060.94;7310886;19;130081;-37
2023/08/20 10:02:54;;;;;;;49.13;5.03;;;;;;;26.34;62.13;100067.03;7310328;19;129022;-42
2023/08/20 10:05:20;;;;;;;59.40;5.40;;;;;;;26.35;62.07;100059.94;7310190;19;128982;-39
2023/08/20 10:07:47;;;;;;;70.47;6.00;;;;;;;26.34;62.11;100061.78;7311730;19;130285;-42
2023/08/20 10:10:13;;;;;;;33.20;3.85;;;;;;;26.36;61.46;100053.69;7311571;19;129283;-42
2023/08/20 10:12:40;;;;;;;71.68;6.13;;;;;;;26.24;62.17;100034.72;7310388;19;129301;-42
2023/08/20 10:15:07;;;;;;;69.57;6.53;;;;;;;26.33;62.09;100044.28;7309789;19;129100;-40
2023/08/20 10:17:34;;;;;;;35.65;4.50;;;;;;;26.36;62.02;100043.97;7311946;19;129494;-39
2023/08/20 10:20:03;;;;;;;63.85;5.75;;;;;;;26.36;61.91;100043.16;7310869;19;129482;-42
2023/08/20 10:22:33;;;;;;;86.85;6.97;;;;;;;26.34;62.73;100034.56;7311045;19;129247;-42
2023/08/20 10:25:00;;;;;;;55.70;5.22;;;;;;;26.33;61.94;100033.75;7309817;19;129424;-42
2023/08/20 10:27:31;;;;;;;56.15;5.93;;;;;;;26.33;61.97;100031.09;7310570;19;129281;-40
2023/08/20 10:29:57;;;;;;;47.17;5.00;;;;;;;26.35;62.06;100031.78;7310674;19;129547;-38
2023/08/20 10:32:51;;;;;;;88.50;7.75;;;;;;;26.33;64.36;100030.31;7310226;19;129119;-42
2023/08/20 10:35:27;;;;;;;65.90;5.78;;;;;;;26.33;62.27;100025.81;7309792;19;130070;-39
2023/08/20 10:38:03;;;;;;;64.28;5.97;;;;;;;26.31;63.68;100014.63;7310457;19;129989;-39
2023/08/20 10:40:46;;;;;;;82.78;6.70;;;;;;;26.33;63.79;100006.56;7311540;19;130382;-38
2023/08/20 10:43:43;;;;;;;54.38;5.50;;;;;;;26.34;64.04;100019.59;7310595;19;129430;-44
2023/08/20 10:46:14;;;;;;;70.57;5.97;;;;;;;26.35;61.58;100021.22;7310451;19;129680;-41
2023/08/20 10:48:40;;;;;;;58.30;5.18;;;;;;;26.33;61.82;100015.28;7311177;19;130506;-41
2023/08/20 10:51:14;;;;;;;52.03;4.93;;;;;;;26.32;63.82;100013.66;7311079;19;129576;-40
2023/08/20 10:53:42;;;;;;;42.13;4.18;;;;;;;26.32;62.44;100011.00;7308450;19;129484;-43
2023/08/20 10:56:17;;;;;;;45.95;4.45;;;;;;;26.32;64.56;100016.28;7310818;19;129088;-41
2023/08/20 10:58:47;;;;;;;79.45;6.47;;;;;;;26.31;63.09;100017.25;7309416;19;130100;-42
2023/08/20 11:01:20;;;;;;;48.55;4.72;;;;;;;26.26;63.79;99998.44;7310714;19;130111;-42
2023/08/20 11:03:48;;;;;;;64.55;5.88;;;;;;;26.32;62.04;100003.09;7309320;19;128976;-38
2023/08/20 11:06:14;;;;;;;44.53;4.60;;;;;;;26.35;62.02;100007.22;7308343;19;128820;-43
2023/08/20 11:08:40;;;;;;;67.87;5.60;;;;;;;26.34;61.58;100009.03;7309169;19;130538;-41
2023/08/20 11:11:05;;;;;;;31.23;3.83;;;;;;;26.32;62.85;100007.53;7310693;19;130287;-42
2023/08/20 11:13:34;;;;;;;61.33;5.73;;;;;;;26.33;63.10;100017.91;7309812;19;129245;-38
2023/08/20 11:16:02;;;;;;;50.72;4.53;;;;;;;26.35;62.18;100012.47;7310296;19;129171;-40